Dunmore, Canada
Current Conditions -  °F | °C
As of 11:00 AM on Friday 21 Nov 2014 (Local Time) from CYXH Reporting Station
Few Clouds Few Clouds  
Wind Chill: 34°   Ceiling: Unl
Heat Index: 41°   Visibility: 30mi
Dew Point: 32°   Wind: 12mph
Humidity: 70%   Direction: 210°SSW
Pressure: 29.61"   Gusts: NA
Location:  49.97°N, 110.58°W
Report Text: CYXH 211800Z 21010KT 30SM FEW250 05/M00 A2961 RMK CI2 SLP047
Loading
Personal Weather Stations






























Interactive Weather Map New forecast layout! Learn more

10-Day Weather Forecast

Advertisements
Track Severe Weather on mobile